sensor_id;sensor_type;location;lat;lon;timestamp;P1;durP1;ratioP1;P2;durP2;ratioP2
2548;SDS011;1284;53.520;10.248;2024-03-23T00:54:23;4.72;;;1.05;;
2548;SDS011;1284;53.520;10.248;2024-03-23T00:56:48;7.45;;;1.50;;
2548;SDS011;1284;53.520;10.248;2024-03-23T00:59:14;10.07;;;1.70;;
2548;SDS011;1284;53.520;10.248;2024-03-23T01:01:39;14.55;;;1.63;;
2548;SDS011;1284;53.520;10.248;2024-03-23T01:04:05;8.85;;;1.65;;
2548;SDS011;1284;53.520;10.248;2024-03-23T01:06:30;6.93;;;1.38;;
2548;SDS011;1284;53.520;10.248;2024-03-23T01:08:56;8.55;;;2.70;;
2548;SDS011;1284;53.520;10.248;2024-03-23T01:11:21;7.90;;;2.28;;
2548;SDS011;1284;53.520;10.248;2024-03-23T01:13:47;6.18;;;1.85;;
2548;SDS011;1284;53.520;10.248;2024-03-23T01:16:12;2.80;;;1.15;;
2548;SDS011;1284;53.520;10.248;2024-03-23T01:18:38;4.28;;;1.17;;
2548;SDS011;1284;53.520;10.248;2024-03-23T01:21:03;5.72;;;1.48;;
2548;SDS011;1284;53.520;10.248;2024-03-23T01:23:29;8.95;;;1.27;;
2548;SDS011;1284;53.520;10.248;2024-03-23T01:25:54;10.02;;;1.98;;
2548;SDS011;1284;53.520;10.248;2024-03-23T01:28:20;4.53;;;1.20;;
2548;SDS011;1284;53.520;10.248;2024-03-23T01:30:46;9.55;;;1.95;;
2548;SDS011;1284;53.520;10.248;2024-03-23T01:33:12;7.35;;;2.60;;
2548;SDS011;1284;53.520;10.248;2024-03-23T01:35:37;7.25;;;1.40;;
2548;SDS011;1284;53.520;10.248;2024-03-23T01:38:03;8.13;;;1.67;;
2548;SDS011;1284;53.520;10.248;2024-03-23T01:40:29;6.25;;;1.20;;
2548;SDS011;1284;53.520;10.248;2024-03-23T01:45:22;3.47;;;1.20;;
2548;SDS011;1284;53.520;10.248;2024-03-23T01:47:49;8.70;;;1.83;;
2548;SDS011;1284;53.520;10.248;2024-03-23T01:50:15;9.90;;;1.58;;
2548;SDS011;1284;53.520;10.248;2024-03-23T01:52:41;15.43;;;1.55;;
2548;SDS011;1284;53.520;10.248;2024-03-23T01:55:07;7.13;;;1.58;;
2548;SDS011;1284;53.520;10.248;2024-03-23T01:57:33;13.00;;;1.67;;
2548;SDS011;1284;53.520;10.248;2024-03-23T01:59:59;10.50;;;1.63;;
2548;SDS011;1284;53.520;10.248;2024-03-23T02:02:26;4.65;;;1.13;;
2548;SDS011;1284;53.520;10.248;2024-03-23T02:04:52;4.13;;;1.40;;
2548;SDS011;1284;53.520;10.248;2024-03-23T02:07:17;4.97;;;1.73;;
2548;SDS011;1284;53.520;10.248;2024-03-23T02:09:43;8.57;;;1.85;;
2548;SDS011;1284;53.520;10.248;2024-03-23T02:12:09;9.90;;;1.88;;
2548;SDS011;1284;53.520;10.248;2024-03-23T02:14:35;9.45;;;1.40;;
2548;SDS011;1284;53.520;10.248;2024-03-23T02:17:00;6.20;;;1.60;;
2548;SDS011;1284;53.520;10.248;2024-03-23T02:19:25;11.65;;;1.73;;
2548;SDS011;1284;53.520;10.248;2024-03-23T02:21:51;2.72;;;1.15;;
2548;SDS011;1284;53.520;10.248;2024-03-23T02:24:16;5.32;;;1.45;;
2548;SDS011;1284;53.520;10.248;2024-03-23T02:26:42;3.13;;;1.10;;
2548;SDS011;1284;53.520;10.248;2024-03-23T02:29:07;13.73;;;1.13;;
2548;SDS011;1284;53.520;10.248;2024-03-23T02:31:34;6.97;;;1.33;;
2548;SDS011;1284;53.520;10.248;2024-03-23T02:34:01;16.55;;;1.45;;
2548;SDS011;1284;53.520;10.248;2024-03-23T02:36:26;3.75;;;1.55;;
2548;SDS011;1284;53.520;10.248;2024-03-23T02:38:52;5.30;;;1.30;;
2548;SDS011;1284;53.520;10.248;2024-03-23T02:41:17;10.00;;;1.75;;
2548;SDS011;1284;53.520;10.248;2024-03-23T02:43:50;7.60;;;1.05;;
2548;SDS011;1284;53.520;10.248;2024-03-23T02:46:16;9.07;;;1.05;;
2548;SDS011;1284;53.520;10.248;2024-03-23T02:48:41;3.15;;;0.93;;
2548;SDS011;1284;53.520;10.248;2024-03-23T02:51:07;5.57;;;1.88;;
2548;SDS011;1284;53.520;10.248;2024-03-23T02:53:33;13.35;;;1.77;;
2548;SDS011;1284;53.520;10.248;2024-03-23T02:55:59;12.55;;;1.58;;
2548;SDS011;1284;53.520;10.248;2024-03-23T02:58:25;10.82;;;2.13;;
2548;SDS011;1284;53.520;10.248;2024-03-23T03:00:50;7.28;;;0.98;;
2548;SDS011;1284;53.520;10.248;2024-03-23T03:03:15;9.25;;;1.80;;
2548;SDS011;1284;53.520;10.248;2024-03-23T03:05:41;6.15;;;1.27;;
2548;SDS011;1284;53.520;10.248;2024-03-23T03:08:06;4.57;;;1.48;;
2548;SDS011;1284;53.520;10.248;2024-03-23T03:10:32;8.32;;;1.50;;
2548;SDS011;1284;53.520;10.248;2024-03-23T03:13:00;10.00;;;1.58;;
2548;SDS011;1284;53.520;10.248;2024-03-23T03:15:26;7.30;;;1.30;;
2548;SDS011;1284;53.520;10.248;2024-03-23T03:17:51;5.35;;;1.88;;
2548;SDS011;1284;53.520;10.248;2024-03-23T03:20:17;6.88;;;2.47;;
2548;SDS011;1284;53.520;10.248;2024-03-23T03:22:43;5.47;;;1.80;;
2548;SDS011;1284;53.520;10.248;2024-03-23T03:25:09;12.68;;;1.48;;
2548;SDS011;1284;53.520;10.248;2024-03-23T03:27:34;11.15;;;2.15;;
2548;SDS011;1284;53.520;10.248;2024-03-23T03:30:00;10.15;;;1.75;;
2548;SDS011;1284;53.520;10.248;2024-03-23T03:32:31;8.55;;;1.40;;
2548;SDS011;1284;53.520;10.248;2024-03-23T03:34:57;10.57;;;1.55;;
2548;SDS011;1284;53.520;10.248;2024-03-23T03:37:22;5.88;;;1.13;;
2548;SDS011;1284;53.520;10.248;2024-03-23T03:39:48;6.25;;;1.10;;
2548;SDS011;1284;53.520;10.248;2024-03-23T03:42:14;10.23;;;2.28;;
2548;SDS011;1284;53.520;10.248;2024-03-23T03:44:39;7.30;;;0.85;;
2548;SDS011;1284;53.520;10.248;2024-03-23T03:47:05;3.33;;;1.17;;
2548;SDS011;1284;53.520;10.248;2024-03-23T03:49:31;6.30;;;1.58;;
2548;SDS011;1284;53.520;10.248;2024-03-23T03:51:57;5.47;;;1.35;;
2548;SDS011;1284;53.520;10.248;2024-03-23T03:54:22;3.17;;;1.08;;
2548;SDS011;1284;53.520;10.248;2024-03-23T03:56:48;9.23;;;1.02;;
2548;SDS011;1284;53.520;10.248;2024-03-23T03:59:13;2.00;;;0.75;;
2548;SDS011;1284;53.520;10.248;2024-03-23T04:01:40;7.63;;;1.70;;
2548;SDS011;1284;53.520;10.248;2024-03-23T04:04:06;2.90;;;1.45;;
2548;SDS011;1284;53.520;10.248;2024-03-23T04:06:31;2.80;;;1.13;;
2548;SDS011;1284;53.520;10.248;2024-03-23T04:08:58;5.75;;;1.50;;
2548;SDS011;1284;53.520;10.248;2024-03-23T04:11:24;6.07;;;1.52;;
2548;SDS011;1284;53.520;10.248;2024-03-23T04:13:49;9.65;;;1.42;;
2548;SDS011;1284;53.520;10.248;2024-03-23T04:16:24;11.93;;;0.90;;
2548;SDS011;1284;53.520;10.248;2024-03-23T04:18:53;6.43;;;1.27;;
2548;SDS011;1284;53.520;10.248;2024-03-23T04:21:19;7.57;;;1.00;;
2548;SDS011;1284;53.520;10.248;2024-03-23T04:23:45;6.68;;;2.28;;
2548;SDS011;1284;53.520;10.248;2024-03-23T04:26:11;2.80;;;1.23;;
2548;SDS011;1284;53.520;10.248;2024-03-23T04:28:36;3.72;;;0.80;;
2548;SDS011;1284;53.520;10.248;2024-03-23T04:31:05;5.00;;;1.15;;
2548;SDS011;1284;53.520;10.248;2024-03-23T04:33:30;3.25;;;1.27;;
2548;SDS011;1284;53.520;10.248;2024-03-23T04:35:56;1.85;;;1.00;;
2548;SDS011;1284;53.520;10.248;2024-03-23T04:38:22;7.50;;;1.10;;
2548;SDS011;1284;53.520;10.248;2024-03-23T04:40:54;3.63;;;1.13;;
2548;SDS011;1284;53.520;10.248;2024-03-23T04:43:21;16.15;;;1.98;;
2548;SDS011;1284;53.520;10.248;2024-03-23T04:45:46;6.63;;;1.42;;
2548;SDS011;1284;53.520;10.248;2024-03-23T04:48:12;1.90;;;1.15;;
2548;SDS011;1284;53.520;10.248;2024-03-23T04:50:38;10.40;;;1.73;;
2548;SDS011;1284;53.520;10.248;2024-03-23T04:53:06;4.30;;;0.88;;
2548;SDS011;1284;53.520;10.248;2024-03-23T04:55:32;10.85;;;1.52;;
2548;SDS011;1284;53.520;10.248;2024-03-23T04:57:57;2.97;;;1.58;;
2548;SDS011;1284;53.520;10.248;2024-03-23T05:00:23;10.13;;;2.17;;
2548;SDS011;1284;53.520;10.248;2024-03-23T05:02:48;8.48;;;1.67;;
2548;SDS011;1284;53.520;10.248;2024-03-23T05:05:14;1.95;;;0.95;;
2548;SDS011;1284;53.520;10.248;2024-03-23T05:07:42;6.90;;;1.30;;
2548;SDS011;1284;53.520;10.248;2024-03-23T05:10:09;5.05;;;1.50;;
2548;SDS011;1284;53.520;10.248;2024-03-23T05:12:39;7.22;;;0.70;;
2548;SDS011;1284;53.520;10.248;2024-03-23T05:15:05;2.85;;;1.20;;
2548;SDS011;1284;53.520;10.248;2024-03-23T05:17:31;2.08;;;0.77;;
2548;SDS011;1284;53.520;10.248;2024-03-23T05:20:03;9.23;;;1.45;;
2548;SDS011;1284;53.520;10.248;2024-03-23T05:22:29;4.72;;;1.20;;
2548;SDS011;1284;53.520;10.248;2024-03-23T05:24:56;7.38;;;1.20;;
2548;SDS011;1284;53.520;10.248;2024-03-23T05:27:21;3.28;;;0.75;;
2548;SDS011;1284;53.520;10.248;2024-03-23T05:29:47;9.55;;;1.48;;
2548;SDS011;1284;53.520;10.248;2024-03-23T05:32:12;1.52;;;1.00;;
2548;SDS011;1284;53.520;10.248;2024-03-23T05:34:38;2.85;;;1.40;;
2548;SDS011;1284;53.520;10.248;2024-03-23T05:37:03;2.67;;;1.27;;
2548;SDS011;1284;53.520;10.248;2024-03-23T05:39:29;2.88;;;1.13;;
2548;SDS011;1284;53.520;10.248;2024-03-23T05:41:55;6.90;;;1.02;;
2548;SDS011;1284;53.520;10.248;2024-03-23T05:44:20;2.53;;;1.10;;
2548;SDS011;1284;53.520;10.248;2024-03-23T05:46:46;2.90;;;1.20;;
2548;SDS011;1284;53.520;10.248;2024-03-23T05:49:15;8.77;;;1.42;;
2548;SDS011;1284;53.520;10.248;2024-03-23T05:51:42;6.05;;;1.08;;
2548;SDS011;1284;53.520;10.248;2024-03-23T05:54:07;6.65;;;2.03;;
2548;SDS011;1284;53.520;10.248;2024-03-23T05:56:33;16.60;;;1.58;;
2548;SDS011;1284;53.520;10.248;2024-03-23T05:58:58;7.20;;;1.45;;
2548;SDS011;1284;53.520;10.248;2024-03-23T06:01:24;5.68;;;1.30;;
2548;SDS011;1284;53.520;10.248;2024-03-23T06:03:49;3.95;;;1.10;;
2548;SDS011;1284;53.520;10.248;2024-03-23T06:06:15;9.57;;;1.20;;
2548;SDS011;1284;53.520;10.248;2024-03-23T06:08:41;2.70;;;1.00;;
2548;SDS011;1284;53.520;10.248;2024-03-23T06:11:06;13.35;;;1.67;;
2548;SDS011;1284;53.520;10.248;2024-03-23T06:13:32;7.45;;;1.13;;
2548;SDS011;1284;53.520;10.248;2024-03-23T06:15:59;3.00;;;1.40;;
2548;SDS011;1284;53.520;10.248;2024-03-23T06:18:25;2.45;;;0.77;;
2548;SDS011;1284;53.520;10.248;2024-03-23T06:20:51;4.65;;;1.23;;
2548;SDS011;1284;53.520;10.248;2024-03-23T06:23:16;8.32;;;1.27;;
2548;SDS011;1284;53.520;10.248;2024-03-23T06:25:45;5.22;;;1.48;;
2548;SDS011;1284;53.520;10.248;2024-03-23T06:28:10;4.50;;;0.95;;
2548;SDS011;1284;53.520;10.248;2024-03-23T06:30:36;6.25;;;1.50;;
2548;SDS011;1284;53.520;10.248;2024-03-23T06:33:01;4.80;;;1.27;;
2548;SDS011;1284;53.520;10.248;2024-03-23T06:35:27;5.50;;;1.55;;
2548;SDS011;1284;53.520;10.248;2024-03-23T06:37:53;1.77;;;1.17;;
2548;SDS011;1284;53.520;10.248;2024-03-23T06:40:18;0.95;;;0.75;;
2548;SDS011;1284;53.520;10.248;2024-03-23T06:42:43;5.30;;;1.52;;
2548;SDS011;1284;53.520;10.248;2024-03-23T06:45:09;5.00;;;1.48;;
2548;SDS011;1284;53.520;10.248;2024-03-23T06:47:35;1.77;;;0.80;;
2548;SDS011;1284;53.520;10.248;2024-03-23T06:50:01;10.20;;;1.48;;
2548;SDS011;1284;53.520;10.248;2024-03-23T06:52:28;5.13;;;1.85;;
2548;SDS011;1284;53.520;10.248;2024-03-23T06:54:53;2.97;;;1.90;;
2548;SDS011;1284;53.520;10.248;2024-03-23T06:57:19;7.03;;;1.58;;
2548;SDS011;1284;53.520;10.248;2024-03-23T06:59:44;10.25;;;1.38;;
2548;SDS011;1284;53.520;10.248;2024-03-23T07:02:10;5.05;;;0.98;;
2548;SDS011;1284;53.520;10.248;2024-03-23T07:04:36;4.22;;;1.23;;
2548;SDS011;1284;53.520;10.248;2024-03-23T07:07:02;4.82;;;1.10;;
2548;SDS011;1284;53.520;10.248;2024-03-23T07:09:30;4.97;;;1.05;;
2548;SDS011;1284;53.520;10.248;2024-03-23T07:11:56;8.32;;;1.50;;
2548;SDS011;1284;53.520;10.248;2024-03-23T07:14:22;9.13;;;1.92;;
2548;SDS011;1284;53.520;10.248;2024-03-23T07:16:48;6.07;;;1.40;;
2548;SDS011;1284;53.520;10.248;2024-03-23T07:19:15;8.02;;;1.40;;
2548;SDS011;1284;53.520;10.248;2024-03-23T07:21:44;4.50;;;1.13;;
2548;SDS011;1284;53.520;10.248;2024-03-23T07:24:10;6.00;;;1.13;;
2548;SDS011;1284;53.520;10.248;2024-03-23T07:26:36;7.03;;;1.17;;
2548;SDS011;1284;53.520;10.248;2024-03-23T07:29:03;7.38;;;1.65;;
2548;SDS011;1284;53.520;10.248;2024-03-23T07:31:32;5.45;;;1.13;;
2548;SDS011;1284;53.520;10.248;2024-03-23T07:33:57;7.93;;;1.25;;
2548;SDS011;1284;53.520;10.248;2024-03-23T07:36:23;3.85;;;1.40;;
2548;SDS011;1284;53.520;10.248;2024-03-23T07:38:48;14.77;;;1.33;;
2548;SDS011;1284;53.520;10.248;2024-03-23T07:41:15;6.10;;;0.90;;
2548;SDS011;1284;53.520;10.248;2024-03-23T07:43:44;5.23;;;1.13;;
2548;SDS011;1284;53.520;10.248;2024-03-23T07:46:11;5.80;;;1.15;;
2548;SDS011;1284;53.520;10.248;2024-03-23T07:48:37;5.93;;;1.45;;
2548;SDS011;1284;53.520;10.248;2024-03-23T07:51:04;2.67;;;1.17;;
2548;SDS011;1284;53.520;10.248;2024-03-23T07:53:31;11.15;;;1.83;;
2548;SDS011;1284;53.520;10.248;2024-03-23T07:55:58;7.45;;;1.67;;
2548;SDS011;1284;53.520;10.248;2024-03-23T07:58:28;5.47;;;1.52;;
2548;SDS011;1284;53.520;10.248;2024-03-23T08:00:54;7.97;;;1.23;;
2548;SDS011;1284;53.520;10.248;2024-03-23T08:03:20;5.97;;;1.10;;
2548;SDS011;1284;53.520;10.248;2024-03-23T08:05:46;5.03;;;1.13;;
2548;SDS011;1284;53.520;10.248;2024-03-23T08:08:12;3.08;;;1.15;;
2548;SDS011;1284;53.520;10.248;2024-03-23T08:10:50;2.90;;;1.10;;
2548;SDS011;1284;53.520;10.248;2024-03-23T08:13:17;10.75;;;1.73;;
2548;SDS011;1284;53.520;10.248;2024-03-23T08:15:43;1.77;;;1.35;;
2548;SDS011;1284;53.520;10.248;2024-03-23T08:18:10;5.57;;;1.63;;
2548;SDS011;1284;53.520;10.248;2024-03-23T08:20:38;8.38;;;1.25;;
2548;SDS011;1284;53.520;10.248;2024-03-23T08:23:07;2.30;;;0.90;;
2548;SDS011;1284;53.520;10.248;2024-03-23T08:25:33;10.50;;;1.60;;
2548;SDS011;1284;53.520;10.248;2024-03-23T08:27:59;5.53;;;1.02;;
2548;SDS011;1284;53.520;10.248;2024-03-23T08:30:26;8.45;;;1.38;;
2548;SDS011;1284;53.520;10.248;2024-03-23T08:32:51;7.82;;;1.13;;
2548;SDS011;1284;53.520;10.248;2024-03-23T08:35:17;5.13;;;1.02;;
2548;SDS011;1284;53.520;10.248;2024-03-23T08:37:42;4.20;;;1.33;;
2548;SDS011;1284;53.520;10.248;2024-03-23T08:40:08;7.55;;;1.63;;
2548;SDS011;1284;53.520;10.248;2024-03-23T08:42:34;4.35;;;0.90;;
2548;SDS011;1284;53.520;10.248;2024-03-23T08:45:00;5.35;;;1.15;;
2548;SDS011;1284;53.520;10.248;2024-03-23T08:47:25;9.70;;;1.67;;
2548;SDS011;1284;53.520;10.248;2024-03-23T08:49:51;7.53;;;1.55;;
2548;SDS011;1284;53.520;10.248;2024-03-23T08:52:16;3.17;;;1.75;;
2548;SDS011;1284;53.520;10.248;2024-03-23T08:54:42;1.75;;;0.95;;
2548;SDS011;1284;53.520;10.248;2024-03-23T08:57:08;3.63;;;1.10;;
2548;SDS011;1284;53.520;10.248;2024-03-23T08:59:33;8.82;;;2.08;;
2548;SDS011;1284;53.520;10.248;2024-03-23T09:01:59;6.90;;;1.63;;
2548;SDS011;1284;53.520;10.248;2024-03-23T09:04:25;4.38;;;1.67;;
2548;SDS011;1284;53.520;10.248;2024-03-23T09:06:50;8.88;;;1.45;;
2548;SDS011;1284;53.520;10.248;2024-03-23T09:09:17;6.82;;;1.35;;
2548;SDS011;1284;53.520;10.248;2024-03-23T09:11:42;9.85;;;1.65;;
2548;SDS011;1284;53.520;10.248;2024-03-23T09:14:08;9.23;;;1.17;;
2548;SDS011;1284;53.520;10.248;2024-03-23T09:16:34;7.22;;;1.33;;
2548;SDS011;1284;53.520;10.248;2024-03-23T09:19:00;4.25;;;1.13;;
2548;SDS011;1284;53.520;10.248;2024-03-23T09:21:25;10.57;;;1.40;;
2548;SDS011;1284;53.520;10.248;2024-03-23T09:23:51;6.90;;;1.17;;
2548;SDS011;1284;53.520;10.248;2024-03-23T09:26:16;2.58;;;0.80;;
2548;SDS011;1284;53.520;10.248;2024-03-23T09:28:41;5.95;;;0.98;;
2548;SDS011;1284;53.520;10.248;2024-03-23T09:31:08;1.77;;;0.88;;
2548;SDS011;1284;53.520;10.248;2024-03-23T09:33:35;1.90;;;0.90;;
2548;SDS011;1284;53.520;10.248;2024-03-23T09:36:04;1.15;;;0.60;;
2548;SDS011;1284;53.520;10.248;2024-03-23T09:38:30;1.13;;;0.63;;
2548;SDS011;1284;53.520;10.248;2024-03-23T09:40:56;3.15;;;0.85;;
2548;SDS011;1284;53.520;10.248;2024-03-23T09:43:22;8.63;;;2.00;;
2548;SDS011;1284;53.520;10.248;2024-03-23T09:45:48;7.78;;;1.27;;
2548;SDS011;1284;53.520;10.248;2024-03-23T09:48:15;2.85;;;1.38;;
2548;SDS011;1284;53.520;10.248;2024-03-23T09:50:44;5.78;;;0.60;;
2548;SDS011;1284;53.520;10.248;2024-03-23T09:53:11;2.30;;;0.52;;
2548;SDS011;1284;53.520;10.248;2024-03-23T09:55:38;3.33;;;0.43;;
2548;SDS011;1284;53.520;10.248;2024-03-23T09:58:05;4.28;;;1.27;;
2548;SDS011;1284;53.520;10.248;2024-03-23T10:00:34;4.82;;;0.93;;
2548;SDS011;1284;53.520;10.248;2024-03-23T10:03:00;5.78;;;1.00;;
2548;SDS011;1284;53.520;10.248;2024-03-23T10:05:29;6.05;;;0.57;;
2548;SDS011;1284;53.520;10.248;2024-03-23T10:10:39;9.35;;;0.82;;
2548;SDS011;1284;53.520;10.248;2024-03-23T10:13:05;6.47;;;0.60;;
2548;SDS011;1284;53.520;10.248;2024-03-23T10:15:32;2.47;;;0.77;;
2548;SDS011;1284;53.520;10.248;2024-03-23T10:18:04;1.55;;;0.73;;
2548;SDS011;1284;53.520;10.248;2024-03-23T10:20:42;4.50;;;1.10;;
2548;SDS011;1284;53.520;10.248;2024-03-23T10:23:15;1.98;;;0.88;;
2548;SDS011;1284;53.520;10.248;2024-03-23T10:25:41;4.15;;;0.65;;
2548;SDS011;1284;53.520;10.248;2024-03-23T10:28:07;6.65;;;1.20;;
2548;SDS011;1284;53.520;10.248;2024-03-23T10:30:32;4.03;;;0.60;;
2548;SDS011;1284;53.520;10.248;2024-03-23T10:33:07;4.05;;;0.82;;
2548;SDS011;1284;53.520;10.248;2024-03-23T10:35:33;4.97;;;0.50;;
2548;SDS011;1284;53.520;10.248;2024-03-23T10:38:00;4.80;;;0.85;;
2548;SDS011;1284;53.520;10.248;2024-03-23T10:40:28;7.32;;;1.33;;
2548;SDS011;1284;53.520;10.248;2024-03-23T10:42:55;5.97;;;0.73;;
2548;SDS011;1284;53.520;10.248;2024-03-23T10:45:24;3.22;;;1.00;;
2548;SDS011;1284;53.520;10.248;2024-03-23T10:47:49;1.83;;;0.73;;
2548;SDS011;1284;53.520;10.248;2024-03-23T10:50:15;4.30;;;0.60;;
2548;SDS011;1284;53.520;10.248;2024-03-23T10:52:41;1.38;;;0.40;;
2548;SDS011;1284;53.520;10.248;2024-03-23T10:55:13;1.05;;;0.30;;
2548;SDS011;1284;53.520;10.248;2024-03-23T10:57:49;2.50;;;1.08;;
2548;SDS011;1284;53.520;10.248;2024-03-23T11:00:18;6.20;;;0.88;;
2548;SDS011;1284;53.520;10.248;2024-03-23T11:02:44;3.95;;;1.02;;
2548;SDS011;1284;53.520;10.248;2024-03-23T11:05:28;1.65;;;0.73;;
2548;SDS011;1284;53.520;10.248;2024-03-23T11:07:55;0.98;;;0.50;;
2548;SDS011;1284;53.520;10.248;2024-03-23T11:10:27;0.55;;;0.40;;
2548;SDS011;1284;53.520;10.248;2024-03-23T11:12:56;0.47;;;0.45;;
2548;SDS011;1284;53.520;10.248;2024-03-23T11:15:22;2.65;;;0.70;;
2548;SDS011;1284;53.520;10.248;2024-03-23T11:18:04;3.30;;;0.52;;
2548;SDS011;1284;53.520;10.248;2024-03-23T11:20:33;2.83;;;0.40;;
2548;SDS011;1284;53.520;10.248;2024-03-23T11:23:02;4.10;;;0.98;;
2548;SDS011;1284;53.520;10.248;2024-03-23T11:25:28;1.58;;;0.60;;
2548;SDS011;1284;53.520;10.248;2024-03-23T11:27:55;1.50;;;0.70;;
2548;SDS011;1284;53.520;10.248;2024-03-23T11:30:25;3.03;;;1.03;;
2548;SDS011;1284;53.520;10.248;2024-03-23T11:32:53;2.60;;;0.57;;
2548;SDS011;1284;53.520;10.248;2024-03-23T11:35:33;2.58;;;0.65;;
2548;SDS011;1284;53.520;10.248;2024-03-23T11:40:29;5.47;;;0.85;;
2548;SDS011;1284;53.520;10.248;2024-03-23T11:42:58;3.75;;;1.10;;
2548;SDS011;1284;53.520;10.248;2024-03-23T11:45:25;2.03;;;0.73;;
2548;SDS011;1284;53.520;10.248;2024-03-23T11:48:33;5.95;;;1.00;;
2548;SDS011;1284;53.520;10.248;2024-03-23T11:50:43;2.80;;;0.65;;
2548;SDS011;1284;53.520;10.248;2024-03-23T11:53:17;1.13;;;0.40;;
2548;SDS011;1284;53.520;10.248;2024-03-23T11:55:55;1.08;;;0.60;;
2548;SDS011;1284;53.520;10.248;2024-03-23T11:58:25;0.47;;;0.38;;
2548;SDS011;1284;53.520;10.248;2024-03-23T12:03:19;3.33;;;0.80;;
2548;SDS011;1284;53.520;10.248;2024-03-23T12:05:47;0.90;;;0.45;;
2548;SDS011;1284;53.520;10.248;2024-03-23T12:08:19;0.47;;;0.30;;
2548;SDS011;1284;53.520;10.248;2024-03-23T12:10:47;0.95;;;0.55;;
2548;SDS011;1284;53.520;10.248;2024-03-23T12:13:15;2.08;;;0.43;;
2548;SDS011;1284;53.520;10.248;2024-03-23T12:15:42;0.90;;;0.50;;
2548;SDS011;1284;53.520;10.248;2024-03-23T12:18:08;2.28;;;0.63;;
2548;SDS011;1284;53.520;10.248;2024-03-23T12:20:35;1.60;;;0.60;;
2548;SDS011;1284;53.520;10.248;2024-03-23T12:23:06;1.02;;;0.63;;
2548;SDS011;1284;53.520;10.248;2024-03-23T12:25:38;0.73;;;0.70;;
2548;SDS011;1284;53.520;10.248;2024-03-23T12:28:05;3.28;;;0.50;;
2548;SDS011;1284;53.520;10.248;2024-03-23T12:30:32;0.68;;;0.40;;
2548;SDS011;1284;53.520;10.248;2024-03-23T12:33:01;0.40;;;0.30;;
2548;SDS011;1284;53.520;10.248;2024-03-23T12:35:26;0.73;;;0.30;;
2548;SDS011;1284;53.520;10.248;2024-03-23T12:37:52;0.40;;;0.20;;
2548;SDS011;1284;53.520;10.248;2024-03-23T12:40:17;0.88;;;0.30;;
2548;SDS011;1284;53.520;10.248;2024-03-23T12:42:43;0.80;;;0.40;;
2548;SDS011;1284;53.520;10.248;2024-03-23T12:45:08;4.75;;;0.65;;
2548;SDS011;1284;53.520;10.248;2024-03-23T12:47:34;0.85;;;0.20;;
2548;SDS011;1284;53.520;10.248;2024-03-23T12:50:00;1.20;;;0.20;;
2548;SDS011;1284;53.520;10.248;2024-03-23T12:52:25;1.80;;;0.28;;
2548;SDS011;1284;53.520;10.248;2024-03-23T12:54:54;0.60;;;0.30;;
2548;SDS011;1284;53.520;10.248;2024-03-23T12:57:25;4.90;;;0.50;;
2548;SDS011;1284;53.520;10.248;2024-03-23T12:59:51;1.02;;;0.20;;
2548;SDS011;1284;53.520;10.248;2024-03-23T13:02:20;0.40;;;0.30;;
2548;SDS011;1284;53.520;10.248;2024-03-23T13:04:46;0.10;;;0.10;;
2548;SDS011;1284;53.520;10.248;2024-03-23T13:07:15;0.65;;;0.20;;
2548;SDS011;1284;53.520;10.248;2024-03-23T13:09:41;0.40;;;0.15;;
2548;SDS011;1284;53.520;10.248;2024-03-23T13:12:06;0.10;;;0.10;;
2548;SDS011;1284;53.520;10.248;2024-03-23T13:14:32;0.98;;;0.30;;
2548;SDS011;1284;53.520;10.248;2024-03-23T13:16:58;0.10;;;0.10;;
2548;SDS011;1284;53.520;10.248;2024-03-23T13:19:24;0.80;;;0.25;;
2548;SDS011;1284;53.520;10.248;2024-03-23T13:21:55;0.28;;;0.28;;
2548;SDS011;1284;53.520;10.248;2024-03-23T13:24:24;0.20;;;0.20;;
2548;SDS011;1284;53.520;10.248;2024-03-23T13:26:53;0.20;;;0.20;;
2548;SDS011;1284;53.520;10.248;2024-03-23T13:29:19;0.98;;;0.90;;
2548;SDS011;1284;53.520;10.248;2024-03-23T13:31:46;2.72;;;0.32;;
2548;SDS011;1284;53.520;10.248;2024-03-23T13:34:12;0.73;;;0.40;;
2548;SDS011;1284;53.520;10.248;2024-03-23T13:36:41;0.65;;;0.40;;
2548;SDS011;1284;53.520;10.248;2024-03-23T13:39:07;3.95;;;0.40;;
2548;SDS011;1284;53.520;10.248;2024-03-23T13:41:39;0.75;;;0.30;;
2548;SDS011;1284;53.520;10.248;2024-03-23T13:44:06;0.70;;;0.47;;
2548;SDS011;1284;53.520;10.248;2024-03-23T13:46:32;1.40;;;0.40;;
2548;SDS011;1284;53.520;10.248;2024-03-23T13:48:58;0.93;;;0.60;;
2548;SDS011;1284;53.520;10.248;2024-03-23T13:51:24;3.03;;;0.30;;
2548;SDS011;1284;53.520;10.248;2024-03-23T13:53:56;0.40;;;0.30;;
2548;SDS011;1284;53.520;10.248;2024-03-23T13:56:22;0.73;;;0.43;;
2548;SDS011;1284;53.520;10.248;2024-03-23T13:58:48;1.50;;;0.40;;
2548;SDS011;1284;53.520;10.248;2024-03-23T14:01:17;1.05;;;0.40;;
2548;SDS011;1284;53.520;10.248;2024-03-23T14:03:43;0.30;;;0.30;;
2548;SDS011;1284;53.520;10.248;2024-03-23T14:06:09;1.25;;;0.65;;
2548;SDS011;1284;53.520;10.248;2024-03-23T14:08:35;0.65;;;0.55;;
2548;SDS011;1284;53.520;10.248;2024-03-23T14:11:04;1.40;;;0.50;;
2548;SDS011;1284;53.520;10.248;2024-03-23T14:13:34;1.20;;;0.47;;
2548;SDS011;1284;53.520;10.248;2024-03-23T14:16:00;0.30;;;0.30;;
2548;SDS011;1284;53.520;10.248;2024-03-23T14:18:27;0.93;;;0.70;;
2548;SDS011;1284;53.520;10.248;2024-03-23T14:20:57;0.35;;;0.32;;
2548;SDS011;1284;53.520;10.248;2024-03-23T14:23:24;1.67;;;0.30;;
2548;SDS011;1284;53.520;10.248;2024-03-23T14:25:54;0.20;;;0.20;;
2548;SDS011;1284;53.520;10.248;2024-03-23T14:28:21;0.30;;;0.28;;
2548;SDS011;1284;53.520;10.248;2024-03-23T14:30:48;1.17;;;0.20;;
2548;SDS011;1284;53.520;10.248;2024-03-23T14:33:15;0.88;;;0.30;;
2548;SDS011;1284;53.520;10.248;2024-03-23T14:35:41;0.98;;;0.50;;
2548;SDS011;1284;53.520;10.248;2024-03-23T14:38:06;2.05;;;0.40;;
2548;SDS011;1284;53.520;10.248;2024-03-23T14:40:33;1.38;;;0.30;;
2548;SDS011;1284;53.520;10.248;2024-03-23T14:42:58;0.40;;;0.20;;
2548;SDS011;1284;53.520;10.248;2024-03-23T14:45:24;0.95;;;0.50;;
2548;SDS011;1284;53.520;10.248;2024-03-23T14:47:52;7.32;;;0.50;;
2548;SDS011;1284;53.520;10.248;2024-03-23T14:50:18;2.33;;;0.40;;
2548;SDS011;1284;53.520;10.248;2024-03-23T14:52:47;2.95;;;0.55;;
2548;SDS011;1284;53.520;10.248;2024-03-23T14:55:13;2.60;;;0.50;;
2548;SDS011;1284;53.520;10.248;2024-03-23T14:57:39;0.20;;;0.20;;
2548;SDS011;1284;53.520;10.248;2024-03-23T15:00:06;0.45;;;0.30;;
2548;SDS011;1284;53.520;10.248;2024-03-23T15:02:33;0.65;;;0.45;;
2548;SDS011;1284;53.520;10.248;2024-03-23T15:04:59;4.28;;;0.50;;
2548;SDS011;1284;53.520;10.248;2024-03-23T15:07:25;1.65;;;0.60;;
2548;SDS011;1284;53.520;10.248;2024-03-23T15:09:52;1.35;;;0.57;;
2548;SDS011;1284;53.520;10.248;2024-03-23T15:12:19;1.63;;;0.40;;
2548;SDS011;1284;53.520;10.248;2024-03-23T15:14:44;1.17;;;0.55;;
2548;SDS011;1284;53.520;10.248;2024-03-23T15:17:11;0.90;;;0.40;;
2548;SDS011;1284;53.520;10.248;2024-03-23T15:19:36;1.95;;;0.47;;
2548;SDS011;1284;53.520;10.248;2024-03-23T15:22:02;3.83;;;0.60;;
2548;SDS011;1284;53.520;10.248;2024-03-23T15:24:28;2.30;;;1.15;;
2548;SDS011;1284;53.520;10.248;2024-03-23T15:26:53;3.58;;;0.50;;
2548;SDS011;1284;53.520;10.248;2024-03-23T15:29:20;0.30;;;0.30;;
2548;SDS011;1284;53.520;10.248;2024-03-23T15:31:47;1.95;;;0.32;;
2548;SDS011;1284;53.520;10.248;2024-03-23T15:34:16;2.50;;;0.28;;
2548;SDS011;1284;53.520;10.248;2024-03-23T15:36:41;3.63;;;0.35;;
2548;SDS011;1284;53.520;10.248;2024-03-23T15:39:06;0.28;;;0.25;;
2548;SDS011;1284;53.520;10.248;2024-03-23T15:41:32;0.30;;;0.20;;
2548;SDS011;1284;53.520;10.248;2024-03-23T15:43:59;0.30;;;0.30;;
2548;SDS011;1284;53.520;10.248;2024-03-23T15:46:24;1.55;;;0.30;;
2548;SDS011;1284;53.520;10.248;2024-03-23T15:48:50;0.82;;;0.20;;
2548;SDS011;1284;53.520;10.248;2024-03-23T15:51:16;0.22;;;0.20;;
2548;SDS011;1284;53.520;10.248;2024-03-23T15:53:43;2.20;;;0.47;;
2548;SDS011;1284;53.520;10.248;2024-03-23T15:56:08;0.52;;;0.47;;
2548;SDS011;1284;53.520;10.248;2024-03-23T15:58:34;0.20;;;0.20;;
2548;SDS011;1284;53.520;10.248;2024-03-23T16:01:00;3.92;;;0.25;;